sensor_id;sensor_type;location;lat;lon;timestamp;P1;durP1;ratioP1;P2;durP2;ratioP2
30133;SDS011;16946;49.984;10.672;2023-05-10T00:00:01;5.77;;;4.63;;
30133;SDS011;16946;49.984;10.672;2023-05-10T00:00:34;6.28;;;5.10;;
30133;SDS011;16946;49.984;10.672;2023-05-10T00:01:05;5.73;;;4.83;;
30133;SDS011;16946;49.984;10.672;2023-05-10T00:01:35;5.33;;;4.83;;
30133;SDS011;16946;49.984;10.672;2023-05-10T00:02:06;5.03;;;4.33;;
30133;SDS011;16946;49.984;10.672;2023-05-10T00:02:37;5.80;;;4.83;;
30133;SDS011;16946;49.984;10.672;2023-05-10T00:03:07;5.03;;;4.63;;
30133;SDS011;16946;49.984;10.672;2023-05-10T00:03:38;5.70;;;5.20;;
30133;SDS011;16946;49.984;10.672;2023-05-10T00:04:09;5.20;;;4.70;;
30133;SDS011;16946;49.984;10.672;2023-05-10T00:04:40;7.17;;;4.83;;
30133;SDS011;16946;49.984;10.672;2023-05-10T00:05:10;5.80;;;4.90;;
30133;SDS011;16946;49.984;10.672;2023-05-10T00:05:41;5.80;;;4.87;;
30133;SDS011;16946;49.984;10.672;2023-05-10T00:06:11;5.30;;;4.77;;
30133;SDS011;16946;49.984;10.672;2023-05-10T00:06:42;5.77;;;5.20;;
30133;SDS011;16946;49.984;10.672;2023-05-10T00:07:12;5.30;;;4.87;;
30133;SDS011;16946;49.984;10.672;2023-05-10T00:07:43;6.30;;;4.90;;
30133;SDS011;16946;49.984;10.672;2023-05-10T00:08:14;8.40;;;5.28;;
30133;SDS011;16946;49.984;10.672;2023-05-10T00:08:45;7.23;;;5.53;;
30133;SDS011;16946;49.984;10.672;2023-05-10T00:09:15;5.53;;;5.10;;
30133;SDS011;16946;49.984;10.672;2023-05-10T00:09:46;5.63;;;5.13;;
30133;SDS011;16946;49.984;10.672;2023-05-10T00:10:17;5.67;;;4.73;;
30133;SDS011;16946;49.984;10.672;2023-05-10T00:10:47;6.80;;;4.87;;
30133;SDS011;16946;49.984;10.672;2023-05-10T00:11:18;5.50;;;5.00;;
30133;SDS011;16946;49.984;10.672;2023-05-10T00:11:48;7.20;;;4.70;;
30133;SDS011;16946;49.984;10.672;2023-05-10T00:12:19;6.33;;;4.57;;
30133;SDS011;16946;49.984;10.672;2023-05-10T00:12:50;6.50;;;4.70;;
30133;SDS011;16946;49.984;10.672;2023-05-10T00:13:21;5.37;;;4.87;;
30133;SDS011;16946;49.984;10.672;2023-05-10T00:13:52;5.72;;;5.22;;
30133;SDS011;16946;49.984;10.672;2023-05-10T00:14:23;6.53;;;5.03;;
30133;SDS011;16946;49.984;10.672;2023-05-10T00:14:53;5.30;;;4.80;;
30133;SDS011;16946;49.984;10.672;2023-05-10T00:15:24;5.10;;;4.60;;
30133;SDS011;16946;49.984;10.672;2023-05-10T00:15:54;6.23;;;5.10;;
30133;SDS011;16946;49.984;10.672;2023-05-10T00:16:25;6.33;;;5.30;;
30133;SDS011;16946;49.984;10.672;2023-05-10T00:16:55;5.67;;;5.13;;
30133;SDS011;16946;49.984;10.672;2023-05-10T00:17:26;5.57;;;5.03;;
30133;SDS011;16946;49.984;10.672;2023-05-10T00:17:56;6.30;;;5.57;;
30133;SDS011;16946;49.984;10.672;2023-05-10T00:18:27;5.40;;;4.77;;
30133;SDS011;16946;49.984;10.672;2023-05-10T00:18:57;5.73;;;5.23;;
30133;SDS011;16946;49.984;10.672;2023-05-10T00:19:28;5.47;;;4.97;;
30133;SDS011;16946;49.984;10.672;2023-05-10T00:19:58;5.50;;;5.00;;
30133;SDS011;16946;49.984;10.672;2023-05-10T00:20:30;6.32;;;5.38;;
30133;SDS011;16946;49.984;10.672;2023-05-10T00:21:00;5.93;;;5.23;;
30133;SDS011;16946;49.984;10.672;2023-05-10T00:21:31;5.23;;;4.70;;
30133;SDS011;16946;49.984;10.672;2023-05-10T00:22:03;5.65;;;5.15;;
30133;SDS011;16946;49.984;10.672;2023-05-10T00:22:33;5.63;;;5.13;;
30133;SDS011;16946;49.984;10.672;2023-05-10T00:23:04;6.40;;;5.63;;
30133;SDS011;16946;49.984;10.672;2023-05-10T00:23:35;6.17;;;5.57;;
30133;SDS011;16946;49.984;10.672;2023-05-10T00:24:05;6.00;;;5.43;;
30133;SDS011;16946;49.984;10.672;2023-05-10T00:24:36;6.30;;;5.70;;
30133;SDS011;16946;49.984;10.672;2023-05-10T00:25:07;5.53;;;5.03;;
30133;SDS011;16946;49.984;10.672;2023-05-10T00:25:38;6.03;;;5.20;;
30133;SDS011;16946;49.984;10.672;2023-05-10T00:26:08;6.57;;;5.23;;
30133;SDS011;16946;49.984;10.672;2023-05-10T00:26:39;5.93;;;4.93;;
30133;SDS011;16946;49.984;10.672;2023-05-10T00:27:09;5.93;;;5.07;;
30133;SDS011;16946;49.984;10.672;2023-05-10T00:27:40;5.73;;;4.67;;
30133;SDS011;16946;49.984;10.672;2023-05-10T00:28:10;5.73;;;5.07;;
30133;SDS011;16946;49.984;10.672;2023-05-10T00:28:41;5.13;;;4.70;;
30133;SDS011;16946;49.984;10.672;2023-05-10T00:29:11;6.13;;;5.63;;
30133;SDS011;16946;49.984;10.672;2023-05-10T00:29:42;5.40;;;4.87;;
30133;SDS011;16946;49.984;10.672;2023-05-10T00:30:12;5.83;;;5.27;;
30133;SDS011;16946;49.984;10.672;2023-05-10T00:30:43;5.10;;;4.60;;
30133;SDS011;16946;49.984;10.672;2023-05-10T00:31:13;5.70;;;5.20;;
30133;SDS011;16946;49.984;10.672;2023-05-10T00:31:44;5.70;;;5.20;;
30133;SDS011;16946;49.984;10.672;2023-05-10T00:32:15;7.10;;;5.40;;
30133;SDS011;16946;49.984;10.672;2023-05-10T00:32:46;6.30;;;5.80;;
30133;SDS011;16946;49.984;10.672;2023-05-10T00:33:18;5.80;;;5.30;;
30133;SDS011;16946;49.984;10.672;2023-05-10T00:33:48;6.27;;;5.10;;
30133;SDS011;16946;49.984;10.672;2023-05-10T00:34:19;7.13;;;5.47;;
30133;SDS011;16946;49.984;10.672;2023-05-10T00:34:49;5.93;;;5.20;;
30133;SDS011;16946;49.984;10.672;2023-05-10T00:35:20;8.05;;;5.40;;
30133;SDS011;16946;49.984;10.672;2023-05-10T00:35:51;5.95;;;5.20;;
30133;SDS011;16946;49.984;10.672;2023-05-10T00:36:22;6.03;;;5.53;;
30133;SDS011;16946;49.984;10.672;2023-05-10T00:36:53;6.23;;;5.63;;
30133;SDS011;16946;49.984;10.672;2023-05-10T00:37:23;5.87;;;5.37;;
30133;SDS011;16946;49.984;10.672;2023-05-10T00:37:54;7.23;;;5.53;;
30133;SDS011;16946;49.984;10.672;2023-05-10T00:38:24;7.37;;;6.03;;
30133;SDS011;16946;49.984;10.672;2023-05-10T00:38:55;5.83;;;5.33;;
30133;SDS011;16946;49.984;10.672;2023-05-10T00:39:25;7.13;;;5.77;;
30133;SDS011;16946;49.984;10.672;2023-05-10T00:39:58;7.72;;;5.50;;
30133;SDS011;16946;49.984;10.672;2023-05-10T00:40:29;7.30;;;6.10;;
30133;SDS011;16946;49.984;10.672;2023-05-10T00:41:00;6.50;;;5.95;;
30133;SDS011;16946;49.984;10.672;2023-05-10T00:41:31;6.17;;;5.57;;
30133;SDS011;16946;49.984;10.672;2023-05-10T00:42:04;6.43;;;5.63;;
30133;SDS011;16946;49.984;10.672;2023-05-10T00:42:35;6.70;;;6.10;;
30133;SDS011;16946;49.984;10.672;2023-05-10T00:43:05;6.17;;;5.57;;
30133;SDS011;16946;49.984;10.672;2023-05-10T00:43:36;8.47;;;6.00;;
30133;SDS011;16946;49.984;10.672;2023-05-10T00:44:06;7.70;;;5.60;;
30133;SDS011;16946;49.984;10.672;2023-05-10T00:44:37;7.20;;;5.77;;
30133;SDS011;16946;49.984;10.672;2023-05-10T00:45:08;6.37;;;5.77;;
30133;SDS011;16946;49.984;10.672;2023-05-10T00:45:39;5.90;;;5.40;;
30133;SDS011;16946;49.984;10.672;2023-05-10T00:46:11;6.05;;;5.45;;
30133;SDS011;16946;49.984;10.672;2023-05-10T00:46:42;6.15;;;5.50;;
30133;SDS011;16946;49.984;10.672;2023-05-10T00:47:12;5.93;;;5.13;;
30133;SDS011;16946;49.984;10.672;2023-05-10T00:47:43;6.30;;;5.70;;
30133;SDS011;16946;49.984;10.672;2023-05-10T00:48:14;6.60;;;5.80;;
30133;SDS011;16946;49.984;10.672;2023-05-10T00:48:44;7.13;;;6.33;;
30133;SDS011;16946;49.984;10.672;2023-05-10T00:49:15;6.60;;;5.70;;
30133;SDS011;16946;49.984;10.672;2023-05-10T00:49:46;6.50;;;5.75;;
30133;SDS011;16946;49.984;10.672;2023-05-10T00:50:17;5.93;;;5.37;;
30133;SDS011;16946;49.984;10.672;2023-05-10T00:50:48;8.20;;;6.80;;
30133;SDS011;16946;49.984;10.672;2023-05-10T00:51:18;7.30;;;6.60;;
30133;SDS011;16946;49.984;10.672;2023-05-10T00:51:49;7.60;;;6.30;;
30133;SDS011;16946;49.984;10.672;2023-05-10T00:52:20;6.13;;;5.53;;
30133;SDS011;16946;49.984;10.672;2023-05-10T00:52:50;7.77;;;6.10;;
30133;SDS011;16946;49.984;10.672;2023-05-10T00:53:21;6.47;;;5.87;;
30133;SDS011;16946;49.984;10.672;2023-05-10T00:53:52;6.90;;;6.30;;
30133;SDS011;16946;49.984;10.672;2023-05-10T00:54:23;6.60;;;6.00;;
30133;SDS011;16946;49.984;10.672;2023-05-10T00:54:53;6.57;;;5.97;;
30133;SDS011;16946;49.984;10.672;2023-05-10T00:55:24;6.80;;;6.10;;
30133;SDS011;16946;49.984;10.672;2023-05-10T00:55:55;6.57;;;5.97;;
30133;SDS011;16946;49.984;10.672;2023-05-10T00:56:26;6.60;;;6.00;;
30133;SDS011;16946;49.984;10.672;2023-05-10T00:56:58;6.72;;;5.95;;
30133;SDS011;16946;49.984;10.672;2023-05-10T00:57:28;7.83;;;7.10;;
30133;SDS011;16946;49.984;10.672;2023-05-10T00:57:59;6.80;;;6.07;;
30133;SDS011;16946;49.984;10.672;2023-05-10T00:58:30;6.73;;;6.13;;
30133;SDS011;16946;49.984;10.672;2023-05-10T00:59:00;7.03;;;6.43;;
30133;SDS011;16946;49.984;10.672;2023-05-10T00:59:32;9.13;;;7.00;;
30133;SDS011;16946;49.984;10.672;2023-05-10T01:00:02;7.10;;;6.50;;
30133;SDS011;16946;49.984;10.672;2023-05-10T01:00:33;7.50;;;6.80;;
30133;SDS011;16946;49.984;10.672;2023-05-10T01:01:05;7.50;;;6.70;;
30133;SDS011;16946;49.984;10.672;2023-05-10T01:01:36;7.68;;;6.97;;
30133;SDS011;16946;49.984;10.672;2023-05-10T01:02:07;7.15;;;6.53;;
30133;SDS011;16946;49.984;10.672;2023-05-10T01:02:38;10.17;;;7.23;;
30133;SDS011;16946;49.984;10.672;2023-05-10T01:03:10;9.93;;;6.93;;
30133;SDS011;16946;49.984;10.672;2023-05-10T01:03:41;7.70;;;7.00;;
30133;SDS011;16946;49.984;10.672;2023-05-10T01:04:13;8.10;;;7.30;;
30133;SDS011;16946;49.984;10.672;2023-05-10T01:04:44;7.65;;;6.95;;
30133;SDS011;16946;49.984;10.672;2023-05-10T01:05:15;9.97;;;7.13;;
30133;SDS011;16946;49.984;10.672;2023-05-10T01:05:46;7.77;;;7.07;;
30133;SDS011;16946;49.984;10.672;2023-05-10T01:06:16;8.03;;;7.17;;
30133;SDS011;16946;49.984;10.672;2023-05-10T01:06:47;8.67;;;6.90;;
30133;SDS011;16946;49.984;10.672;2023-05-10T01:07:17;7.73;;;7.03;;
30133;SDS011;16946;49.984;10.672;2023-05-10T01:07:48;8.33;;;7.50;;
30133;SDS011;16946;49.984;10.672;2023-05-10T01:08:18;9.23;;;6.83;;
30133;SDS011;16946;49.984;10.672;2023-05-10T01:08:50;8.38;;;7.65;;
30133;SDS011;16946;49.984;10.672;2023-05-10T01:09:20;8.60;;;7.80;;
30133;SDS011;16946;49.984;10.672;2023-05-10T01:09:52;8.52;;;7.55;;
30133;SDS011;16946;49.984;10.672;2023-05-10T01:10:22;7.63;;;6.87;;
30133;SDS011;16946;49.984;10.672;2023-05-10T01:10:53;8.40;;;7.60;;
30133;SDS011;16946;49.984;10.672;2023-05-10T01:11:24;8.63;;;7.82;;
30133;SDS011;16946;49.984;10.672;2023-05-10T01:11:55;9.03;;;8.23;;
30133;SDS011;16946;49.984;10.672;2023-05-10T01:12:26;8.85;;;7.47;;
30133;SDS011;16946;49.984;10.672;2023-05-10T01:12:57;7.63;;;6.93;;
30133;SDS011;16946;49.984;10.672;2023-05-10T01:13:31;9.02;;;7.68;;
30133;SDS011;16946;49.984;10.672;2023-05-10T01:14:04;9.15;;;8.35;;
30133;SDS011;16946;49.984;10.672;2023-05-10T01:14:36;8.13;;;7.43;;
30133;SDS011;16946;49.984;10.672;2023-05-10T01:15:06;8.83;;;8.13;;
30133;SDS011;16946;49.984;10.672;2023-05-10T01:15:39;9.75;;;7.68;;
30133;SDS011;16946;49.984;10.672;2023-05-10T01:16:10;9.77;;;8.77;;
30133;SDS011;16946;49.984;10.672;2023-05-10T01:16:41;8.83;;;8.03;;
30133;SDS011;16946;49.984;10.672;2023-05-10T01:17:14;8.27;;;7.45;;
30133;SDS011;16946;49.984;10.672;2023-05-10T01:17:45;8.77;;;7.85;;
30133;SDS011;16946;49.984;10.672;2023-05-10T01:18:18;9.23;;;7.80;;
30133;SDS011;16946;49.984;10.672;2023-05-10T01:18:51;8.82;;;7.97;;
30133;SDS011;16946;49.984;10.672;2023-05-10T01:19:23;8.70;;;7.38;;
30133;SDS011;16946;49.984;10.672;2023-05-10T01:19:58;8.88;;;7.72;;
30133;SDS011;16946;49.984;10.672;2023-05-10T01:20:31;8.80;;;8.00;;
30133;SDS011;16946;49.984;10.672;2023-05-10T01:23:45;8.55;;;7.65;;
30133;SDS011;16946;49.984;10.672;2023-05-10T01:26:30;7.82;;;7.13;;
30133;SDS011;16946;49.984;10.672;2023-05-10T01:29:33;8.65;;;7.65;;
30133;SDS011;16946;49.984;10.672;2023-05-10T01:30:14;7.95;;;7.25;;
30133;SDS011;16946;49.984;10.672;2023-05-10T01:31:08;8.70;;;7.90;;
30133;SDS011;16946;49.984;10.672;2023-05-10T01:32:43;8.30;;;7.50;;
30133;SDS011;16946;49.984;10.672;2023-05-10T01:33:41;8.27;;;7.55;;
30133;SDS011;16946;49.984;10.672;2023-05-10T01:34:23;8.45;;;7.65;;
30133;SDS011;16946;49.984;10.672;2023-05-10T01:35:02;8.13;;;7.43;;
30133;SDS011;16946;49.984;10.672;2023-05-10T01:36:23;9.05;;;8.25;;
30133;SDS011;16946;49.984;10.672;2023-05-10T01:36:57;8.25;;;7.55;;
30133;SDS011;16946;49.984;10.672;2023-05-10T01:37:43;8.57;;;7.78;;
30133;SDS011;16946;49.984;10.672;2023-05-10T01:39:24;8.30;;;7.50;;
30133;SDS011;16946;49.984;10.672;2023-05-10T01:40:55;8.60;;;7.80;;
30133;SDS011;16946;49.984;10.672;2023-05-10T01:41:32;9.45;;;8.07;;
30133;SDS011;16946;49.984;10.672;2023-05-10T01:42:23;8.05;;;7.35;;
30133;SDS011;16946;49.984;10.672;2023-05-10T01:43:00;11.23;;;8.55;;
30133;SDS011;16946;49.984;10.672;2023-05-10T01:43:36;9.05;;;8.25;;
30133;SDS011;16946;49.984;10.672;2023-05-10T01:44:29;9.20;;;8.15;;
30133;SDS011;16946;49.984;10.672;2023-05-10T01:45:14;9.10;;;8.23;;
30133;SDS011;16946;49.984;10.672;2023-05-10T01:46:28;8.98;;;8.18;;
30133;SDS011;16946;49.984;10.672;2023-05-10T01:47:14;9.30;;;8.40;;
30133;SDS011;16946;49.984;10.672;2023-05-10T01:47:50;9.35;;;7.90;;
30133;SDS011;16946;49.984;10.672;2023-05-10T01:48:49;9.73;;;7.60;;
30133;SDS011;16946;49.984;10.672;2023-05-10T01:49:25;8.63;;;7.82;;
30133;SDS011;16946;49.984;10.672;2023-05-10T01:50:00;9.23;;;8.38;;
30133;SDS011;16946;49.984;10.672;2023-05-10T01:50:33;10.27;;;9.05;;
30133;SDS011;16946;49.984;10.672;2023-05-10T01:51:07;9.75;;;8.85;;
30133;SDS011;16946;49.984;10.672;2023-05-10T01:51:43;10.75;;;9.75;;
30133;SDS011;16946;49.984;10.672;2023-05-10T01:52:18;9.70;;;8.82;;
30133;SDS011;16946;49.984;10.672;2023-05-10T01:52:53;9.30;;;8.40;;
30133;SDS011;16946;49.984;10.672;2023-05-10T01:53:26;9.88;;;8.18;;
30133;SDS011;16946;49.984;10.672;2023-05-10T01:53:59;10.00;;;8.63;;
30133;SDS011;16946;49.984;10.672;2023-05-10T01:54:33;11.38;;;10.27;;
30133;SDS011;16946;49.984;10.672;2023-05-10T01:55:09;10.32;;;9.43;;
30133;SDS011;16946;49.984;10.672;2023-05-10T01:55:46;10.00;;;9.10;;
30133;SDS011;16946;49.984;10.672;2023-05-10T01:56:19;9.95;;;8.52;;
30133;SDS011;16946;49.984;10.672;2023-05-10T01:56:59;11.13;;;8.40;;
30133;SDS011;16946;49.984;10.672;2023-05-10T01:57:34;9.23;;;8.43;;
30133;SDS011;16946;49.984;10.672;2023-05-10T01:58:09;9.95;;;9.05;;
30133;SDS011;16946;49.984;10.672;2023-05-10T01:58:44;9.68;;;8.70;;
30133;SDS011;16946;49.984;10.672;2023-05-10T01:59:18;9.48;;;8.10;;
30133;SDS011;16946;49.984;10.672;2023-05-10T01:59:50;8.38;;;7.60;;
30133;SDS011;16946;49.984;10.672;2023-05-10T02:00:21;9.30;;;8.40;;
30133;SDS011;16946;49.984;10.672;2023-05-10T02:00:53;9.15;;;8.35;;
30133;SDS011;16946;49.984;10.672;2023-05-10T02:01:25;9.70;;;8.70;;
30133;SDS011;16946;49.984;10.672;2023-05-10T02:01:57;9.73;;;8.73;;
30133;SDS011;16946;49.984;10.672;2023-05-10T02:02:29;9.63;;;8.70;;
30133;SDS011;16946;49.984;10.672;2023-05-10T02:03:06;9.43;;;8.43;;
30133;SDS011;16946;49.984;10.672;2023-05-10T02:03:38;9.40;;;8.50;;
30133;SDS011;16946;49.984;10.672;2023-05-10T02:04:11;9.98;;;8.23;;
30133;SDS011;16946;49.984;10.672;2023-05-10T02:04:45;9.25;;;8.27;;
30133;SDS011;16946;49.984;10.672;2023-05-10T02:05:17;9.60;;;8.57;;
30133;SDS011;16946;49.984;10.672;2023-05-10T02:05:48;10.10;;;9.20;;
30133;SDS011;16946;49.984;10.672;2023-05-10T02:06:20;9.88;;;9.05;;
30133;SDS011;16946;49.984;10.672;2023-05-10T02:06:53;9.60;;;8.80;;
30133;SDS011;16946;49.984;10.672;2023-05-10T02:07:26;10.15;;;9.25;;
30133;SDS011;16946;49.984;10.672;2023-05-10T02:07:58;10.38;;;9.27;;
30133;SDS011;16946;49.984;10.672;2023-05-10T02:08:31;10.57;;;9.48;;
30133;SDS011;16946;49.984;10.672;2023-05-10T02:09:04;10.00;;;8.55;;
30133;SDS011;16946;49.984;10.672;2023-05-10T02:09:35;9.63;;;8.73;;
30133;SDS011;16946;49.984;10.672;2023-05-10T02:10:08;9.80;;;8.90;;
30133;SDS011;16946;49.984;10.672;2023-05-10T02:10:40;11.05;;;10.05;;
30133;SDS011;16946;49.984;10.672;2023-05-10T02:11:13;10.93;;;9.90;;
30133;SDS011;16946;49.984;10.672;2023-05-10T02:11:44;10.45;;;9.45;;
30133;SDS011;16946;49.984;10.672;2023-05-10T02:12:15;10.00;;;9.10;;
30133;SDS011;16946;49.984;10.672;2023-05-10T02:12:47;10.13;;;9.23;;
30133;SDS011;16946;49.984;10.672;2023-05-10T02:13:19;10.88;;;9.25;;
30133;SDS011;16946;49.984;10.672;2023-05-10T02:13:51;9.90;;;9.00;;
30133;SDS011;16946;49.984;10.672;2023-05-10T02:14:23;10.07;;;9.18;;
30133;SDS011;16946;49.984;10.672;2023-05-10T02:14:56;10.02;;;9.13;;
30133;SDS011;16946;49.984;10.672;2023-05-10T02:15:29;11.63;;;10.52;;
30133;SDS011;16946;49.984;10.672;2023-05-10T02:16:01;10.70;;;9.70;;
30133;SDS011;16946;49.984;10.672;2023-05-10T02:16:33;10.55;;;9.65;;
30133;SDS011;16946;49.984;10.672;2023-05-10T02:17:06;9.75;;;8.75;;
30133;SDS011;16946;49.984;10.672;2023-05-10T02:17:38;10.55;;;9.52;;
30133;SDS011;16946;49.984;10.672;2023-05-10T02:18:11;10.50;;;9.52;;
30133;SDS011;16946;49.984;10.672;2023-05-10T02:18:43;11.05;;;10.05;;
30133;SDS011;16946;49.984;10.672;2023-05-10T02:19:15;11.75;;;10.55;;
30133;SDS011;16946;49.984;10.672;2023-05-10T02:19:47;11.25;;;10.25;;
30133;SDS011;16946;49.984;10.672;2023-05-10T02:20:18;10.75;;;9.65;;
30133;SDS011;16946;49.984;10.672;2023-05-10T02:20:50;10.27;;;9.38;;
30133;SDS011;16946;49.984;10.672;2023-05-10T02:21:23;10.27;;;9.25;;
30133;SDS011;16946;49.984;10.672;2023-05-10T02:21:55;10.60;;;9.60;;
30133;SDS011;16946;49.984;10.672;2023-05-10T02:22:27;9.77;;;8.77;;
30133;SDS011;16946;49.984;10.672;2023-05-10T02:22:58;10.32;;;9.40;;
30133;SDS011;16946;49.984;10.672;2023-05-10T02:23:30;10.82;;;9.82;;
30133;SDS011;16946;49.984;10.672;2023-05-10T02:24:01;10.68;;;9.68;;
30133;SDS011;16946;49.984;10.672;2023-05-10T02:24:34;9.88;;;8.95;;
30133;SDS011;16946;49.984;10.672;2023-05-10T02:25:06;10.25;;;9.30;;
30133;SDS011;16946;49.984;10.672;2023-05-10T02:25:38;9.80;;;8.90;;
30133;SDS011;16946;49.984;10.672;2023-05-10T02:26:10;10.13;;;9.13;;
30133;SDS011;16946;49.984;10.672;2023-05-10T02:26:43;9.85;;;8.95;;
30133;SDS011;16946;49.984;10.672;2023-05-10T02:27:15;9.77;;;8.82;;
30133;SDS011;16946;49.984;10.672;2023-05-10T02:27:47;9.68;;;8.77;;
30133;SDS011;16946;49.984;10.672;2023-05-10T02:28:18;10.18;;;9.30;;
30133;SDS011;16946;49.984;10.672;2023-05-10T02:28:51;9.68;;;8.68;;
30133;SDS011;16946;49.984;10.672;2023-05-10T02:29:23;10.55;;;9.52;;
30133;SDS011;16946;49.984;10.672;2023-05-10T02:29:55;9.95;;;8.95;;
30133;SDS011;16946;49.984;10.672;2023-05-10T02:30:27;10.35;;;9.45;;
30133;SDS011;16946;49.984;10.672;2023-05-10T02:31:01;9.80;;;8.80;;
30133;SDS011;16946;49.984;10.672;2023-05-10T02:31:32;10.77;;;9.52;;
30133;SDS011;16946;49.984;10.672;2023-05-10T02:32:05;9.98;;;8.98;;
30133;SDS011;16946;49.984;10.672;2023-05-10T02:32:36;13.23;;;11.10;;
30133;SDS011;16946;49.984;10.672;2023-05-10T02:33:07;11.85;;;9.63;;
30133;SDS011;16946;49.984;10.672;2023-05-10T02:33:38;11.90;;;10.70;;
30133;SDS011;16946;49.984;10.672;2023-05-10T02:34:10;10.98;;;9.98;;
30133;SDS011;16946;49.984;10.672;2023-05-10T02:34:42;10.13;;;9.23;;
30133;SDS011;16946;49.984;10.672;2023-05-10T02:35:15;11.30;;;10.20;;
30133;SDS011;16946;49.984;10.672;2023-05-10T02:35:46;12.38;;;11.27;;
30133;SDS011;16946;49.984;10.672;2023-05-10T02:36:17;12.32;;;11.13;;
30133;SDS011;16946;49.984;10.672;2023-05-10T02:36:51;13.00;;;11.73;;
30133;SDS011;16946;49.984;10.672;2023-05-10T02:37:23;11.85;;;10.75;;
30133;SDS011;16946;49.984;10.672;2023-05-10T02:37:55;13.25;;;11.95;;
30133;SDS011;16946;49.984;10.672;2023-05-10T02:38:27;12.75;;;11.25;;
30133;SDS011;16946;49.984;10.672;2023-05-10T02:38:59;11.52;;;10.38;;
30133;SDS011;16946;49.984;10.672;2023-05-10T02:39:31;11.52;;;10.43;;
30133;SDS011;16946;49.984;10.672;2023-05-10T02:40:03;10.65;;;9.57;;
30133;SDS011;16946;49.984;10.672;2023-05-10T02:40:35;12.52;;;10.32;;
30133;SDS011;16946;49.984;10.672;2023-05-10T02:41:07;11.20;;;10.10;;
30133;SDS011;16946;49.984;10.672;2023-05-10T02:41:42;11.32;;;10.23;;
30133;SDS011;16946;49.984;10.672;2023-05-10T02:42:14;12.18;;;10.98;;
30133;SDS011;16946;49.984;10.672;2023-05-10T02:42:47;10.25;;;9.25;;
30133;SDS011;16946;49.984;10.672;2023-05-10T02:43:20;10.98;;;9.88;;
30133;SDS011;16946;49.984;10.672;2023-05-10T02:43:53;11.63;;;10.43;;
30133;SDS011;16946;49.984;10.672;2023-05-10T02:44:27;11.70;;;10.65;;
30133;SDS011;16946;49.984;10.672;2023-05-10T02:45:01;10.35;;;9.38;;
30133;SDS011;16946;49.984;10.672;2023-05-10T02:45:35;10.30;;;9.25;;
30133;SDS011;16946;49.984;10.672;2023-05-10T02:46:08;10.50;;;9.57;;
30133;SDS011;16946;49.984;10.672;2023-05-10T02:46:39;11.60;;;10.57;;
30133;SDS011;16946;49.984;10.672;2023-05-10T02:47:09;11.03;;;10.00;;
30133;SDS011;16946;49.984;10.672;2023-05-10T02:47:40;11.00;;;9.90;;
30133;SDS011;16946;49.984;10.672;2023-05-10T02:48:11;10.27;;;9.27;;
30133;SDS011;16946;49.984;10.672;2023-05-10T02:48:42;10.45;;;9.45;;
30133;SDS011;16946;49.984;10.672;2023-05-10T02:49:12;10.83;;;9.83;;
30133;SDS011;16946;49.984;10.672;2023-05-10T02:49:43;11.50;;;10.47;;
30133;SDS011;16946;49.984;10.672;2023-05-10T02:50:14;11.97;;;10.70;;
30133;SDS011;16946;49.984;10.672;2023-05-10T02:50:45;12.07;;;10.87;;
30133;SDS011;16946;49.984;10.672;2023-05-10T02:51:21;12.70;;;11.50;;
30133;SDS011;16946;49.984;10.672;2023-05-10T02:51:58;12.00;;;10.68;;
30133;SDS011;16946;49.984;10.672;2023-05-10T02:52:36;11.27;;;10.18;;
30133;SDS011;16946;49.984;10.672;2023-05-10T02:53:11;11.65;;;10.55;;
30133;SDS011;16946;49.984;10.672;2023-05-10T02:53:47;12.15;;;10.80;;
30133;SDS011;16946;49.984;10.672;2023-05-10T02:54:21;11.07;;;10.07;;
30133;SDS011;16946;49.984;10.672;2023-05-10T02:54:58;12.32;;;11.15;;
30133;SDS011;16946;49.984;10.672;2023-05-10T02:55:33;12.25;;;11.05;;
30133;SDS011;16946;49.984;10.672;2023-05-10T02:56:28;11.85;;;10.68;;
30133;SDS011;16946;49.984;10.672;2023-05-10T02:57:04;12.32;;;11.10;;
30133;SDS011;16946;49.984;10.672;2023-05-10T02:57:35;11.18;;;10.18;;
30133;SDS011;16946;49.984;10.672;2023-05-10T02:58:11;11.75;;;10.43;;
30133;SDS011;16946;49.984;10.672;2023-05-10T02:58:42;11.00;;;10.00;;
30133;SDS011;16946;49.984;10.672;2023-05-10T02:59:12;11.57;;;10.27;;
30133;SDS011;16946;49.984;10.672;2023-05-10T02:59:43;12.13;;;10.93;;
30133;SDS011;16946;49.984;10.672;2023-05-10T03:00:15;12.32;;;11.13;;
30133;SDS011;16946;49.984;10.672;2023-05-10T03:00:45;10.67;;;9.67;;
30133;SDS011;16946;49.984;10.672;2023-05-10T03:01:16;11.33;;;10.33;;
30133;SDS011;16946;49.984;10.672;2023-05-10T03:01:47;10.40;;;9.50;;
30133;SDS011;16946;49.984;10.672;2023-05-10T03:02:17;11.50;;;10.33;;
30133;SDS011;16946;49.984;10.672;2023-05-10T03:02:48;10.53;;;9.63;;
30133;SDS011;16946;49.984;10.672;2023-05-10T03:03:19;11.17;;;10.13;;
30133;SDS011;16946;49.984;10.672;2023-05-10T03:03:49;11.80;;;10.57;;
30133;SDS011;16946;49.984;10.672;2023-05-10T03:04:20;10.80;;;9.90;;
30133;SDS011;16946;49.984;10.672;2023-05-10T03:04:50;11.20;;;10.17;;
30133;SDS011;16946;49.984;10.672;2023-05-10T03:05:21;11.83;;;10.70;;
30133;SDS011;16946;49.984;10.672;2023-05-10T03:05:52;11.30;;;10.30;;
30133;SDS011;16946;49.984;10.672;2023-05-10T03:06:25;12.85;;;11.65;;
30133;SDS011;16946;49.984;10.672;2023-05-10T03:06:56;13.87;;;12.13;;
30133;SDS011;16946;49.984;10.672;2023-05-10T03:07:26;11.67;;;10.47;;
30133;SDS011;16946;49.984;10.672;2023-05-10T03:07:57;12.90;;;11.40;;
30133;SDS011;16946;49.984;10.672;2023-05-10T03:08:27;14.00;;;11.90;;
30133;SDS011;16946;49.984;10.672;2023-05-10T03:09:01;11.30;;;10.20;;
30133;SDS011;16946;49.984;10.672;2023-05-10T03:09:33;11.35;;;10.38;;
30133;SDS011;16946;49.984;10.672;2023-05-10T03:10:04;11.70;;;10.70;;
30133;SDS011;16946;49.984;10.672;2023-05-10T03:10:38;12.07;;;10.98;;
30133;SDS011;16946;49.984;10.672;2023-05-10T03:13:32;13.25;;;11.85;;
30133;SDS011;16946;49.984;10.672;2023-05-10T03:14:16;13.52;;;12.13;;
30133;SDS011;16946;49.984;10.672;2023-05-10T03:16:24;12.48;;;11.18;;
30133;SDS011;16946;49.984;10.672;2023-05-10T03:17:00;14.55;;;12.13;;
30133;SDS011;16946;49.984;10.672;2023-05-10T03:17:45;14.52;;;12.65;;
30133;SDS011;16946;49.984;10.672;2023-05-10T03:18:22;14.80;;;13.25;;
30133;SDS011;16946;49.984;10.672;2023-05-10T03:18:56;13.35;;;12.05;;
30133;SDS011;16946;49.984;10.672;2023-05-10T03:19:43;15.05;;;12.88;;
30133;SDS011;16946;49.984;10.672;2023-05-10T03:20:59;15.32;;;13.77;;
30133;SDS011;16946;49.984;10.672;2023-05-10T03:21:25;15.00;;;12.25;;
30133;SDS011;16946;49.984;10.672;2023-05-10T03:21:59;13.73;;;12.43;;
30133;SDS011;16946;49.984;10.672;2023-05-10T03:22:37;14.27;;;12.90;;
30133;SDS011;16946;49.984;10.672;2023-05-10T03:23:12;15.43;;;12.43;;
30133;SDS011;16946;49.984;10.672;2023-05-10T03:23:56;14.20;;;12.55;;
30133;SDS011;16946;49.984;10.672;2023-05-10T03:24:31;14.35;;;12.27;;
30133;SDS011;16946;49.984;10.672;2023-05-10T03:25:05;14.43;;;12.93;;
30133;SDS011;16946;49.984;10.672;2023-05-10T03:25:38;13.27;;;11.95;;
30133;SDS011;16946;49.984;10.672;2023-05-10T03:26:09;13.63;;;12.25;;
30133;SDS011;16946;49.984;10.672;2023-05-10T03:26:47;14.32;;;12.82;;
30133;SDS011;16946;49.984;10.672;2023-05-10T03:27:18;13.48;;;12.07;;
30133;SDS011;16946;49.984;10.672;2023-05-10T03:27:50;12.18;;;10.88;;
30133;SDS011;16946;49.984;10.672;2023-05-10T03:28:22;12.73;;;11.55;;